Flight Track Log - Related Links

Times and Time Zones

All times are in EST time to prevent confusion due to time zone crossing. See the N978AC flight status page for this flight to view local times or setup timezone preferences in your user account.

Time Position Orientation Groundspeed Altitude Reporting Facility
EST Latitude Longitude Course Direction KTS MPH feet Rate Location/Type
Wed 01:27:00 PM 26.7915 -80.3464 250° West  Level Estimated
Wed 01:28:00 PM 26.7828 -80.3722 249° West  Level FlightAware Approximate
Wed 01:29:00 PM 26.7741 -80.3981 249° West  Level FlightAware Approximate
Wed 01:30:00 PM 26.7654 -80.4240 249° West  Level FlightAware Approximate
Wed 01:31:00 PM 26.7567 -80.4498 249° West  Level FlightAware Approximate
Wed 01:32:00 PM 26.7480 -80.4757 249° West  Level FlightAware Approximate
Wed 01:33:00 PM 26.7393 -80.5015 249° West  Level FlightAware Approximate
Wed 01:33:15 PM 26.6814 -80.4625 247° West 75 86 4,200  Level Miami Center
Wed 01:34:00 PM 26.7306 -80.5274 249° West  Level FlightAware Approximate
Wed 01:34:15 PM 26.6725 -80.4833 244° Southwest 75 86 4,100  Level Miami Center
Wed 01:35:00 PM 26.7219 -80.5532 249° West  Level FlightAware Approximate
Wed 01:35:15 PM 26.6633 -80.5086 248° West 80 92 4,200  Level Miami Center
Wed 01:36:00 PM 26.7132 -80.5791 249° West  Level FlightAware Approximate
Wed 01:36:15 PM 26.6567 -80.5269 248° West 80 92 4,200  Level Miami Center
Wed 01:37:00 PM 26.7019 -80.6036 247° West  Level Estimated
Wed 01:37:15 PM 26.6500 -80.5500 252° West 80 92 4,200  Level Miami Center
Wed 01:38:15 PM 26.6408 -80.5731 246° West 80 92 4,200  Level Miami Center
Wed 01:39:15 PM 26.6300 -80.5936 239° Southwest 75 86 4,200  Level Miami Center
Wed 01:40:15 PM 26.6211 -80.6142 244° Southwest 86 99 4,200  Level Miami Center
Wed 01:41:15 PM 26.6100 -80.6417 246° West 86 99 4,200  Level Miami Center
Wed 01:42:15 PM 26.6011 -80.6647 247° West 91 105 4,200 -50 Level Miami Center
Wed 01:43:15 PM 26.5900 -80.6897 244° Southwest 91 105 4,100 -100 Descending Miami Center
Wed 01:44:15 PM 26.5808 -80.7128 246° West 91 105 4,000 -50 Descending Miami Center
Wed 01:45:15 PM 26.5717 -80.7425 251° West 91 105 4,000  Level Miami Center
Wed 01:46:15 PM 26.5650 -80.7656 252° West 85 98 4,000  Level Miami Center
Wed 01:47:15 PM 26.5558 -80.7886 246° West 92 106 4,000 50 Level Miami Center
Wed 01:48:15 PM 26.5450 -80.8114 242° Southwest 92 106 4,100 150 Climbing Miami Center
Wed 01:49:15 PM 26.5336 -80.8389 245° Southwest 92 106 4,300 150 Climbing Miami Center
Wed 01:50:15 PM 26.5267 -80.8619 251° West 92 106 4,400 -50 Climbing Miami Center
Wed 01:51:15 PM 26.5178 -80.8872 249° West 92 106 4,200 -150 Descending Miami Center
Wed 01:52:15 PM 26.5131 -80.9100 257° West 87 100 4,100 -100 Descending Miami Center
Wed 01:53:15 PM 26.4975 -80.9350 235° Southwest 87 100 4,000 -100 Descending Miami Center
Wed 01:54:15 PM 26.4908 -80.9558 250° West 93 107 3,900  Descending Miami Center
Wed 01:55:15 PM 26.4817 -80.9808 248° West 88 101 4,000 50 Climbing Miami Center
Wed 01:56:15 PM 26.4769 -80.9994 254° West 88 101 4,000 50 Level Miami Center
Wed 01:57:15 PM 26.4658 -81.0244 244° Southwest 83 96 4,100 50 Climbing Miami Center
Wed 01:58:15 PM 26.4611 -81.0453 256° West 83 96 4,100  Level Miami Center
Wed 01:59:15 PM 26.4500 -81.0681 241° Southwest 83 96 4,100  Level Miami Center
Wed 02:00:15 PM 26.4408 -81.0908 246° West 89 102 4,100  Level Miami Center
Wed 02:01:15 PM 26.4319 -81.1161 249° West 89 102 4,100  Level Miami Center
Wed 02:02:15 PM 26.4208 -81.1389 241° Southwest 89 102 4,100  Level Miami Center
Wed 02:04:00 PM 26.4016 -81.1818 243° Southwest  Level FlightAware Approximate
Wed 02:11:00 PM 26.3233 -81.3534 241° Southwest  Level FlightAware Approximate
Wed 02:12:00 PM 26.3117 -81.3776 243° Southwest  Level FlightAware Approximate
Wed 02:13:00 PM 26.3006 -81.4020 243° Southwest  Level FlightAware Approximate
Wed 02:14:00 PM 26.2895 -81.4265 243° Southwest  Level FlightAware Approximate
Wed 02:15:00 PM 26.2784 -81.4509 243° Southwest  Level FlightAware Approximate
Wed 02:16:00 PM 26.2673 -81.4754 243° Southwest  Level FlightAware Approximate
Wed 02:17:00 PM 26.2562 -81.4998 243° Southwest  Level FlightAware Approximate
Wed 02:18:00 PM 26.2451 -81.5242 243° Southwest  Level FlightAware Approximate
Wed 02:19:00 PM 26.2339 -81.5486 243° Southwest  Level FlightAware Approximate
Wed 02:20:00 PM 26.2244 -81.5739 247° West  Level FlightAware Approximate
Wed 02:21:00 PM 26.2149 -81.5991 247° West  Level FlightAware Approximate
Wed 02:22:00 PM 26.2055 -81.6244 247° West  Level FlightAware Approximate
Wed 02:23:00 PM 26.1960 -81.6497 247° West  Level FlightAware Approximate
Wed 02:24:00 PM 26.1865 -81.6749 247° West  Level FlightAware Approximate
Wed 02:25:00 PM 26.1767 -81.7000 246° West  Level FlightAware Approximate
Wed 02:26:00 PM 26.1667 -81.7250 246° West  Level FlightAware Approximate
Wed 02:27:00 PM 26.1567 -81.7500 246° West  Level FlightAware Approximate
Wed 02:28:00 PM 26.1500 -81.7667 246° West  Level FlightAware Approximate
Wed 02:29:00 PM 26.1524 -81.7756 246° West  Level Estimated
Wed 02:30:00 PM 26.1524 -81.7756 246° West  Level Estimated
Wed 02:31:00 PM 26.1524 -81.7756 246° West  Level Estimated
Wed 02:32:00 PM 26.1524 -81.7756 246° West  Level Estimated
Wed 02:33:00 PM 26.1524 -81.7756 246° West  Level Estimated
Wed 02:34:00 PM 26.1524 -81.7756 246° West  Level Estimated
Wed 02:35:00 PM 26.1524 -81.7756 246° West  Level Estimated
Wed 02:36:00 PM 26.1524 -81.7756 246° West  Level Estimated
Wed 02:37:00 PM 26.1524 -81.7756 246° West  Level Estimated
Wed 02:38:00 PM 26.1524 -81.7756 246° West  Level Estimated
Wed 02:39:00 PM 26.1524 -81.7756 246° West  Level Estimated
Wed 02:40:00 PM 26.1524 -81.7756 246° West  Level Estimated
Wed 02:41:00 PM 26.1524 -81.7756 246° West  Level Estimated
Wed 02:42:00 PM 26.1524 -81.7756 246° West  Level Estimated

Login

Don't have an account? Register now (free) for customized features, flight alerts, and more!